createdAt,value
2023-01-28T00:00:54.150Z,6.10
2023-01-28T00:03:22.195Z,6.80
2023-01-28T00:05:50.147Z,5.83
2023-01-28T00:08:18.341Z,5.63
2023-01-28T00:10:50.633Z,5.73
2023-01-28T00:13:18.732Z,5.63
2023-01-28T00:15:46.571Z,5.33
2023-01-28T00:18:14.634Z,6.60
2023-01-28T00:20:42.708Z,5.97
2023-01-28T00:23:11.003Z,4.60
2023-01-28T00:25:39.025Z,6.47
2023-01-28T00:28:08.321Z,5.90
2023-01-28T00:30:39.102Z,5.10
2023-01-28T00:33:07.775Z,5.20
2023-01-28T00:35:36.128Z,6.07
2023-01-28T00:38:05.895Z,5.80
2023-01-28T00:40:34.078Z,4.37
2023-01-28T00:43:02.300Z,5.73
2023-01-28T00:45:31.536Z,5.93
2023-01-28T00:47:59.644Z,5.10
2023-01-28T00:50:27.945Z,4.33
2023-01-28T00:52:55.955Z,5.47
2023-01-28T00:55:26.882Z,5.53
2023-01-28T00:57:56.046Z,6.20
2023-01-28T01:00:27.234Z,5.30
2023-01-28T01:02:57.150Z,5.40
2023-01-28T01:05:25.126Z,5.97
2023-01-28T01:07:53.087Z,5.17
2023-01-28T01:10:21.572Z,4.73
2023-01-28T01:12:50.313Z,4.23
2023-01-28T01:15:19.672Z,4.53
2023-01-28T01:17:49.945Z,4.10
2023-01-28T01:20:21.701Z,4.13
2023-01-28T01:22:51.031Z,5.30
2023-01-28T01:25:19.729Z,4.73
2023-01-28T01:27:50.859Z,7.97
2023-01-28T01:30:20.604Z,4.47
2023-01-28T01:32:49.462Z,5.00
2023-01-28T01:35:18.086Z,5.07
2023-01-28T01:37:47.532Z,5.37
2023-01-28T01:40:15.541Z,4.40
2023-01-28T01:42:44.591Z,3.90
2023-01-28T01:45:15.539Z,4.50
2023-01-28T01:47:48.911Z,5.73
2023-01-28T01:50:24.108Z,4.93
2023-01-28T01:52:57.081Z,5.23
2023-01-28T01:55:29.120Z,4.13
2023-01-28T01:58:02.995Z,4.37
2023-01-28T02:00:31.694Z,4.87
2023-01-28T02:02:59.845Z,5.10
2023-01-28T02:05:27.914Z,5.07
2023-01-28T02:08:20.283Z,3.47
2023-01-28T02:10:50.585Z,3.67
2023-01-28T02:13:25.867Z,4.00
2023-01-28T02:15:58.246Z,3.70
2023-01-28T02:18:27.216Z,4.27
2023-01-28T02:21:19.984Z,3.80
2023-01-28T02:24:19.737Z,3.90
2023-01-28T02:27:22.544Z,5.03
2023-01-28T02:29:59.983Z,4.17
2023-01-28T02:32:33.827Z,3.90
2023-01-28T02:35:08.495Z,4.77
2023-01-28T02:37:39.861Z,5.20
2023-01-28T02:40:13.328Z,4.37
2023-01-28T02:42:45.404Z,4.67
2023-01-28T02:45:21.647Z,3.93
2023-01-28T02:48:00.620Z,4.17
2023-01-28T02:50:40.590Z,5.00
2023-01-28T02:53:38.504Z,4.43
2023-01-28T02:56:18.874Z,4.77
2023-01-28T02:58:57.410Z,5.30
2023-01-28T03:01:34.885Z,4.83
2023-01-28T03:04:10.073Z,4.77
2023-01-28T03:06:42.940Z,3.93
2023-01-28T03:09:27.398Z,5.20
2023-01-28T03:12:16.634Z,4.67
2023-01-28T03:15:06.754Z,4.23
2023-01-28T03:18:00.860Z,5.70
2023-01-28T03:20:53.644Z,5.20
2023-01-28T03:23:49.530Z,5.23
2023-01-28T03:26:39.940Z,5.10
2023-01-28T03:29:29.517Z,5.83
2023-01-28T03:32:17.783Z,7.20
2023-01-28T03:35:05.827Z,5.30
2023-01-28T03:37:35.205Z,6.23
2023-01-28T03:40:15.734Z,5.93
2023-01-28T03:42:44.776Z,8.63
2023-01-28T03:45:32.782Z,6.60
2023-01-28T03:48:03.257Z,8.90
2023-01-28T03:50:32.995Z,8.10
2023-01-28T03:53:16.909Z,7.50
2023-01-28T03:55:51.154Z,7.47
2023-01-28T03:58:19.910Z,9.63
2023-01-28T04:00:48.206Z,7.77
2023-01-28T04:03:19.757Z,8.87
2023-01-28T04:06:06.924Z,9.10
2023-01-28T04:09:07.256Z,8.57
2023-01-28T04:11:56.233Z,8.23
2023-01-28T04:14:31.965Z,7.43
2023-01-28T04:17:11.841Z,8.03
2023-01-28T04:19:40.451Z,9.70
2023-01-28T04:22:12.880Z,8.33
2023-01-28T04:24:42.864Z,7.73
2023-01-28T04:27:12.180Z,8.50
2023-01-28T04:29:40.895Z,9.13
2023-01-28T04:32:26.791Z,8.00
2023-01-28T04:35:23.237Z,8.97
2023-01-28T04:38:02.063Z,7.53
2023-01-28T04:40:38.629Z,10.73
2023-01-28T04:43:11.668Z,7.60
2023-01-28T04:45:52.154Z,8.47
2023-01-28T04:48:42.351Z,10.50
2023-01-28T04:51:28.948Z,9.00
2023-01-28T04:54:16.713Z,8.97
2023-01-28T04:56:45.383Z,11.27
2023-01-28T04:59:13.583Z,8.07
2023-01-28T05:01:42.279Z,8.70
2023-01-28T05:04:10.194Z,8.20
2023-01-28T05:06:39.849Z,8.80
2023-01-28T05:09:11.494Z,8.03
2023-01-28T05:11:40.953Z,9.00
2023-01-28T05:14:10.073Z,9.37
2023-01-28T05:17:02.121Z,9.87
2023-01-28T05:19:30.122Z,9.00
2023-01-28T05:21:58.702Z,8.43
2023-01-28T05:24:46.930Z,9.53
2023-01-28T05:27:16.781Z,8.97
2023-01-28T05:29:44.706Z,9.40
2023-01-28T05:32:12.766Z,8.40
2023-01-28T05:34:40.675Z,8.43
2023-01-28T05:37:12.971Z,8.10
2023-01-28T05:39:40.891Z,9.37
2023-01-28T05:42:09.056Z,9.97
2023-01-28T05:44:43.196Z,6.87
2023-01-28T05:47:21.736Z,8.27
2023-01-28T05:49:56.472Z,7.93
2023-01-28T05:52:45.066Z,7.57
2023-01-28T05:55:23.016Z,7.97
2023-01-28T05:57:51.942Z,7.37
2023-01-28T06:00:24.510Z,8.37
2023-01-28T06:02:54.979Z,7.27
2023-01-28T06:05:24.214Z,7.63
2023-01-28T06:07:52.350Z,7.67
2023-01-28T06:10:20.856Z,8.13
2023-01-28T06:12:49.156Z,7.80
2023-01-28T06:15:33.899Z,8.83
2023-01-28T06:18:04.470Z,7.53
2023-01-28T06:20:34.854Z,10.77
2023-01-28T06:23:03.023Z,8.03
2023-01-28T06:25:31.098Z,8.00
2023-01-28T06:28:04.357Z,9.73
2023-01-28T06:30:33.751Z,6.87
2023-01-28T06:33:01.727Z,6.70
2023-01-28T06:35:29.626Z,6.77
2023-01-28T06:37:57.466Z,6.63
2023-01-28T06:40:26.038Z,6.97
2023-01-28T06:42:55.479Z,8.13
2023-01-28T06:45:23.612Z,6.73
2023-01-28T06:47:53.323Z,6.80
2023-01-28T06:50:21.740Z,7.90
2023-01-28T06:52:49.959Z,6.27
2023-01-28T06:55:20.662Z,9.63
2023-01-28T06:57:48.775Z,6.97
2023-01-28T07:00:17.796Z,8.87
2023-01-28T07:02:46.100Z,7.53
2023-01-28T07:05:16.851Z,7.97
2023-01-28T07:07:45.498Z,8.33
2023-01-28T07:10:16.148Z,8.80
2023-01-28T07:12:45.876Z,7.77
2023-01-28T07:15:16.374Z,8.63
2023-01-28T07:17:44.233Z,8.17
2023-01-28T07:20:15.803Z,13.00
2023-01-28T07:22:46.341Z,9.17
2023-01-28T07:25:16.101Z,8.50
2023-01-28T07:27:51.167Z,6.67
2023-01-28T07:30:20.846Z,7.13
2023-01-28T07:32:48.945Z,8.77
2023-01-28T07:35:16.802Z,8.73
2023-01-28T07:37:52.381Z,8.87
2023-01-28T07:40:20.748Z,7.30
2023-01-28T07:42:48.571Z,8.43
2023-01-28T07:45:17.083Z,7.20
2023-01-28T07:47:45.161Z,7.83
2023-01-28T07:50:13.536Z,11.53
2023-01-28T07:52:44.512Z,9.87
2023-01-28T07:55:15.460Z,8.67
2023-01-28T07:57:53.513Z,7.70
2023-01-28T08:00:22.978Z,9.73
2023-01-28T08:02:51.358Z,9.20
2023-01-28T08:05:20.842Z,8.73
2023-01-28T08:07:49.699Z,7.63
2023-01-28T08:10:20.412Z,8.67
2023-01-28T08:12:55.673Z,8.07
2023-01-28T08:15:24.391Z,8.60
2023-01-28T08:17:55.181Z,9.23
2023-01-28T08:20:23.372Z,9.90
2023-01-28T08:22:51.392Z,12.07
2023-01-28T08:25:20.842Z,12.30
2023-01-28T08:27:48.835Z,10.17
2023-01-28T08:30:17.161Z,9.30
2023-01-28T08:32:45.352Z,10.97
2023-01-28T08:35:13.332Z,9.03
2023-01-28T08:37:41.246Z,10.10
2023-01-28T08:40:10.581Z,10.03
2023-01-28T08:42:39.800Z,11.97
2023-01-28T08:45:09.131Z,11.17
2023-01-28T08:47:36.991Z,9.80
2023-01-28T08:50:05.347Z,10.80
2023-01-28T08:52:33.266Z,11.67
2023-01-28T08:55:01.208Z,10.60
2023-01-28T08:57:29.029Z,11.53
2023-01-28T08:59:59.328Z,11.57
2023-01-28T09:02:31.913Z,12.53
2023-01-28T09:05:00.532Z,13.07
2023-01-28T09:07:28.485Z,14.33
2023-01-28T09:09:56.483Z,11.73
2023-01-28T09:12:25.014Z,12.03
2023-01-28T09:14:53.192Z,12.80
2023-01-28T09:17:23.096Z,13.37
2023-01-28T09:19:51.768Z,12.70
2023-01-28T09:22:19.814Z,12.67
2023-01-28T09:24:47.995Z,12.53
2023-01-28T09:27:15.938Z,12.30
2023-01-28T09:29:43.902Z,13.47
2023-01-28T09:32:11.892Z,12.03
2023-01-28T09:34:41.231Z,12.97
2023-01-28T09:37:09.159Z,12.70
2023-01-28T09:39:37.142Z,13.40
2023-01-28T09:42:24.148Z,13.93
2023-01-28T09:45:04.108Z,13.30
2023-01-28T09:47:36.455Z,14.97
2023-01-28T09:50:08.572Z,11.50
2023-01-28T09:52:40.382Z,14.37
2023-01-28T09:55:16.259Z,14.00
2023-01-28T09:57:48.693Z,12.40
2023-01-28T10:00:20.210Z,13.70
2023-01-28T10:03:07.796Z,14.37
2023-01-28T10:05:48.694Z,12.13
2023-01-28T10:08:31.258Z,12.33
2023-01-28T10:11:13.080Z,14.70
2023-01-28T10:13:49.777Z,11.93
2023-01-28T10:16:25.539Z,13.00
2023-01-28T10:18:57.403Z,12.80
2023-01-28T10:21:34.698Z,14.77
2023-01-28T10:24:08.206Z,12.27
2023-01-28T10:26:40.001Z,12.90
2023-01-28T10:29:14.322Z,13.47
2023-01-28T10:31:53.307Z,14.13
2023-01-28T10:34:22.722Z,14.47
2023-01-28T10:36:52.312Z,13.87
2023-01-28T10:39:24.779Z,13.33
2023-01-28T10:41:59.058Z,14.30
2023-01-28T10:44:35.746Z,15.17
2023-01-28T10:47:11.238Z,13.67
2023-01-28T10:49:44.132Z,15.33
2023-01-28T10:52:15.044Z,12.53
2023-01-28T10:54:45.626Z,15.20
2023-01-28T10:57:19.512Z,13.93
2023-01-28T10:59:50.112Z,12.33
2023-01-28T11:02:32.138Z,14.00
2023-01-28T11:05:06.369Z,15.23
2023-01-28T11:07:35.651Z,11.97
2023-01-28T11:10:03.733Z,14.13
2023-01-28T11:12:32.101Z,12.07
2023-01-28T11:15:01.607Z,13.40
2023-01-28T11:17:34.340Z,14.03
2023-01-28T11:20:12.310Z,16.10
2023-01-28T11:22:44.208Z,14.90
2023-01-28T11:25:19.763Z,14.03
2023-01-28T11:27:50.143Z,15.57
2023-01-28T11:30:24.998Z,12.67
2023-01-28T11:33:00.509Z,13.50
2023-01-28T11:35:31.274Z,13.90
2023-01-28T11:38:01.639Z,13.57
2023-01-28T11:40:30.290Z,13.07
2023-01-28T11:43:04.281Z,13.90
2023-01-28T11:45:48.589Z,14.70
2023-01-28T11:48:32.262Z,18.60
2023-01-28T11:51:09.349Z,17.93
2023-01-28T11:54:02.832Z,17.50
2023-01-28T11:57:01.032Z,12.93
2023-01-28T12:00:02.480Z,17.43
2023-01-28T12:02:48.615Z,17.37
2023-01-28T12:05:42.361Z,17.30
2023-01-28T12:08:19.671Z,17.97
2023-01-28T12:11:05.287Z,15.50
2023-01-28T12:13:48.454Z,14.23
2023-01-28T12:16:45.516Z,14.30
2023-01-28T12:19:32.432Z,13.77
2023-01-28T12:22:24.833Z,12.90
2023-01-28T12:25:08.582Z,13.77
2023-01-28T12:27:48.847Z,13.80
2023-01-28T12:30:26.323Z,14.23
2023-01-28T12:33:10.060Z,13.60
2023-01-28T12:35:56.478Z,14.67
2023-01-28T12:38:34.570Z,14.13
2023-01-28T12:41:13.877Z,11.87
2023-01-28T12:44:01.841Z,14.40
2023-01-28T12:46:41.954Z,13.67
2023-01-28T12:49:15.970Z,12.80
2023-01-28T12:51:52.428Z,11.17
2023-01-28T12:54:25.063Z,11.43
2023-01-28T12:56:55.675Z,10.50
2023-01-28T12:59:30.372Z,13.17
2023-01-28T13:02:07.882Z,12.33
2023-01-28T13:04:43.462Z,10.53
2023-01-28T13:07:16.765Z,10.70
2023-01-28T13:09:53.223Z,11.10
2023-01-28T13:12:23.752Z,10.43
2023-01-28T13:14:54.413Z,13.80
2023-01-28T13:17:31.012Z,9.80
2023-01-28T13:20:00.312Z,12.10
2023-01-28T13:22:34.149Z,10.53
2023-01-28T13:25:20.157Z,12.43
2023-01-28T13:27:57.250Z,11.63
2023-01-28T13:30:29.347Z,11.17
2023-01-28T13:33:00.310Z,12.03
2023-01-28T13:35:34.376Z,11.10
2023-01-28T13:38:10.115Z,13.80
2023-01-28T13:40:41.693Z,12.00
2023-01-28T13:43:37.256Z,12.40
2023-01-28T13:46:08.459Z,11.43
2023-01-28T13:48:43.004Z,10.37
2023-01-28T13:51:18.880Z,13.70
2023-01-28T13:53:52.598Z,10.50
2023-01-28T14:13:17.627Z,9.73
2023-01-28T14:15:58.544Z,10.47
2023-01-28T14:18:29.013Z,11.23
2023-01-28T14:21:09.181Z,9.27
2023-01-28T14:23:39.958Z,9.13
2023-01-28T14:26:20.445Z,7.70
2023-01-28T14:28:59.644Z,10.27
2023-01-28T14:31:30.200Z,9.23
2023-01-28T14:34:07.326Z,9.17
2023-01-28T14:36:39.042Z,8.10
2023-01-28T14:39:12.341Z,7.47
2023-01-28T14:41:44.371Z,8.77
2023-01-28T14:44:28.275Z,7.60
2023-01-28T14:47:12.230Z,8.53
2023-01-28T14:49:54.840Z,8.93
2023-01-28T14:52:41.543Z,7.40
2023-01-28T14:55:24.110Z,8.17
2023-01-28T14:57:57.147Z,8.87
2023-01-28T15:00:28.616Z,8.07
2023-01-28T15:02:56.929Z,7.50
2023-01-28T15:05:28.919Z,7.77
2023-01-28T15:07:57.425Z,9.33
2023-01-28T15:10:29.299Z,6.73
2023-01-28T15:13:00.907Z,8.37
2023-01-28T15:15:34.403Z,6.97
2023-01-28T15:18:05.958Z,7.07
2023-01-28T15:20:34.543Z,7.27
2023-01-28T15:23:03.835Z,8.27
2023-01-28T15:25:32.059Z,6.73
2023-01-28T15:28:01.824Z,6.37
2023-01-28T15:30:33.538Z,7.67
2023-01-28T15:33:04.574Z,7.10
2023-01-28T15:35:33.031Z,7.37
2023-01-28T15:38:01.801Z,5.80
2023-01-28T15:40:31.589Z,6.40
2023-01-28T15:43:00.179Z,6.17
2023-01-28T15:45:37.120Z,7.43
2023-01-28T15:48:08.987Z,7.20
2023-01-28T15:50:38.411Z,6.83
2023-01-28T15:53:11.112Z,6.97
2023-01-28T15:55:40.842Z,6.70
2023-01-28T15:58:29.472Z,7.00
2023-01-28T16:01:19.900Z,7.77
2023-01-28T16:04:00.458Z,6.80
2023-01-28T16:06:34.225Z,6.87
2023-01-28T16:09:05.815Z,5.93
2023-01-28T16:11:41.306Z,6.87
2023-01-28T16:14:22.686Z,6.87
2023-01-28T16:16:53.172Z,6.57
2023-01-28T16:19:31.965Z,7.03
2023-01-28T16:21:59.930Z,5.77
2023-01-28T16:24:30.173Z,6.67
2023-01-28T16:26:59.741Z,6.70
2023-01-28T16:29:30.912Z,6.73
2023-01-28T16:32:02.384Z,7.43
2023-01-28T16:34:32.723Z,8.37
2023-01-28T16:37:02.679Z,6.17
2023-01-28T16:39:31.166Z,6.37
2023-01-28T16:41:59.606Z,7.87
2023-01-28T16:44:27.782Z,6.60
2023-01-28T16:46:56.368Z,6.37
2023-01-28T16:49:25.958Z,6.07
2023-01-28T16:51:55.182Z,6.97
2023-01-28T16:54:24.147Z,6.70
2023-01-28T16:56:52.435Z,7.23
2023-01-28T16:59:21.001Z,6.43
2023-01-28T17:01:49.988Z,6.50
2023-01-28T17:04:18.779Z,6.83
2023-01-28T17:06:48.443Z,6.10
2023-01-28T17:09:16.600Z,6.40
2023-01-28T17:11:44.552Z,6.00
2023-01-28T17:14:12.782Z,8.77
2023-01-28T17:16:41.807Z,6.00
2023-01-28T17:19:10.307Z,5.83
2023-01-28T17:21:38.404Z,5.30
2023-01-28T17:24:09.197Z,7.00
2023-01-28T17:26:38.170Z,9.07
2023-01-28T17:29:07.865Z,6.03
2023-01-28T17:31:36.705Z,6.73
2023-01-28T17:34:07.111Z,6.23
2023-01-28T17:36:35.846Z,8.43
2023-01-28T17:39:05.096Z,6.60
2023-01-28T17:41:34.793Z,8.20
2023-01-28T17:44:04.816Z,8.43
2023-01-28T17:46:33.139Z,9.00
2023-01-28T17:49:04.745Z,7.50
2023-01-28T17:51:33.377Z,6.00
2023-01-28T17:54:01.848Z,6.30
2023-01-28T17:56:31.350Z,6.90
2023-01-28T17:59:03.801Z,9.93
2023-01-28T18:01:32.659Z,6.40
2023-01-28T18:04:01.388Z,5.93
2023-01-28T18:06:32.607Z,5.97
2023-01-28T18:09:01.247Z,5.93
2023-01-28T18:11:29.870Z,6.40
2023-01-28T18:13:58.335Z,6.33
2023-01-28T18:16:28.358Z,6.70
2023-01-28T18:18:56.452Z,6.93
2023-01-28T18:21:43.039Z,6.10
2023-01-28T18:24:18.874Z,7.60
2023-01-28T18:26:47.913Z,7.77
2023-01-28T18:29:20.406Z,7.20
2023-01-28T18:31:54.347Z,6.20
2023-01-28T18:34:23.828Z,6.07
2023-01-28T18:36:52.329Z,7.07
2023-01-28T18:39:22.200Z,6.23
2023-01-28T18:41:54.799Z,6.90
2023-01-28T18:44:24.430Z,6.80
2023-01-28T18:46:54.570Z,6.20
2023-01-28T18:49:22.691Z,7.63
2023-01-28T18:51:50.937Z,7.73
2023-01-28T18:54:21.524Z,8.77
2023-01-28T18:56:49.702Z,8.50
2023-01-28T18:59:21.355Z,8.73
2023-01-28T19:01:50.000Z,7.30
2023-01-28T19:04:20.099Z,8.07
2023-01-28T19:06:48.254Z,7.40
2023-01-28T19:09:17.859Z,7.50
2023-01-28T19:11:48.309Z,11.17
2023-01-28T19:14:16.643Z,8.90
2023-01-28T19:16:45.536Z,9.87
2023-01-28T19:19:13.673Z,10.40
2023-01-28T19:21:43.583Z,9.50
2023-01-28T19:24:14.322Z,10.43
2023-01-28T19:26:44.026Z,7.43
2023-01-28T19:29:15.617Z,7.47
2023-01-28T19:31:44.374Z,7.90
2023-01-28T19:34:13.162Z,9.57
2023-01-28T19:36:42.898Z,7.60
2023-01-28T19:39:13.156Z,7.70
2023-01-28T19:41:42.289Z,9.47
2023-01-28T19:44:13.073Z,6.60
2023-01-28T19:46:41.745Z,7.17
2023-01-28T19:49:10.749Z,8.73
2023-01-28T19:51:38.958Z,7.53
2023-01-28T19:54:08.394Z,7.57
2023-01-28T19:56:37.737Z,6.80
2023-01-28T19:59:06.459Z,7.63
2023-01-28T20:01:35.943Z,7.50
2023-01-28T20:04:04.826Z,7.63
2023-01-28T20:06:34.657Z,7.83
2023-01-28T20:09:06.139Z,7.10
2023-01-28T20:11:36.442Z,8.27
2023-01-28T20:14:04.449Z,6.73
2023-01-28T20:16:33.980Z,7.33
2023-01-28T20:19:03.988Z,7.60
2023-01-28T20:21:33.442Z,7.70
2023-01-28T20:24:03.078Z,7.17
2023-01-28T20:26:33.990Z,9.17
2023-01-28T20:29:05.161Z,7.03
2023-01-28T20:31:34.223Z,8.07
2023-01-28T20:34:02.383Z,7.70
2023-01-28T20:36:30.625Z,7.07
2023-01-28T20:38:59.146Z,7.60
2023-01-28T20:41:27.969Z,8.20
2023-01-28T20:43:57.325Z,8.77
2023-01-28T20:46:29.245Z,8.13
2023-01-28T20:48:58.884Z,8.60
2023-01-28T20:51:30.483Z,9.37
2023-01-28T20:54:00.496Z,8.37
2023-01-28T20:56:30.115Z,8.60
2023-01-28T20:58:59.682Z,8.77
2023-01-28T21:01:30.725Z,7.40
2023-01-28T21:03:58.708Z,7.47
2023-01-28T21:06:28.429Z,7.03
2023-01-28T21:08:57.239Z,7.43
2023-01-28T21:11:27.424Z,7.60
2023-01-28T21:13:58.181Z,7.77
2023-01-28T21:16:28.449Z,6.93
2023-01-28T21:18:56.715Z,6.83
2023-01-28T21:21:26.889Z,7.43
2023-01-28T21:23:57.784Z,7.43
2023-01-28T21:26:26.387Z,9.33
2023-01-28T21:28:56.348Z,7.50
2023-01-28T21:31:26.465Z,7.03
2023-01-28T21:33:57.792Z,7.77
2023-01-28T21:36:26.943Z,7.77
2023-01-28T21:38:56.624Z,7.20
2023-01-28T21:41:24.816Z,6.47
2023-01-28T21:43:53.960Z,6.70
2023-01-28T21:46:27.128Z,6.70
2023-01-28T21:48:57.797Z,6.93
2023-01-28T21:51:39.613Z,7.17
2023-01-28T21:54:10.885Z,7.40
2023-01-28T21:56:39.713Z,7.73
2023-01-28T21:59:25.088Z,7.07
2023-01-28T22:01:53.215Z,8.83
2023-01-28T22:04:23.486Z,6.27
2023-01-28T22:06:53.260Z,7.43
2023-01-28T22:09:21.258Z,6.53
2023-01-28T22:11:49.463Z,6.80
2023-01-28T22:14:17.765Z,6.57
2023-01-28T22:16:46.855Z,6.80
2023-01-28T22:19:16.116Z,7.33
2023-01-28T22:21:46.951Z,6.93
2023-01-28T22:24:17.611Z,6.37
2023-01-28T22:26:47.261Z,6.00
2023-01-28T22:29:20.336Z,6.83
2023-01-28T22:31:49.369Z,6.87
2023-01-28T22:34:18.662Z,6.30
2023-01-28T22:36:48.964Z,7.70
2023-01-28T22:39:18.062Z,6.10
2023-01-28T22:41:48.545Z,7.63
2023-01-28T22:44:17.125Z,7.63
2023-01-28T22:46:47.784Z,6.20
2023-01-28T22:49:16.057Z,6.27
2023-01-28T22:51:44.224Z,6.20
2023-01-28T22:54:15.155Z,6.40
2023-01-28T22:56:43.971Z,6.23
2023-01-28T22:59:12.972Z,6.63
2023-01-28T23:01:41.402Z,6.20
2023-01-28T23:04:10.019Z,8.77
2023-01-28T23:06:38.318Z,5.97
2023-01-28T23:09:06.599Z,5.87
2023-01-28T23:11:35.994Z,6.40
2023-01-28T23:14:22.972Z,8.07
2023-01-28T23:17:08.567Z,8.60
2023-01-28T23:19:54.700Z,5.93
2023-01-28T23:22:42.141Z,5.27
2023-01-28T23:25:11.055Z,6.67
2023-01-28T23:27:41.201Z,5.93
2023-01-28T23:30:11.047Z,5.93
2023-01-28T23:32:41.017Z,6.23
2023-01-28T23:35:10.097Z,5.73
2023-01-28T23:37:38.318Z,5.20
2023-01-28T23:40:08.685Z,7.30
2023-01-28T23:42:37.372Z,6.07
2023-01-28T23:45:08.580Z,4.57
2023-01-28T23:47:37.244Z,4.47
2023-01-28T23:50:16.170Z,5.77
2023-01-28T23:52:44.741Z,6.53
2023-01-28T23:55:13.164Z,5.03
2023-01-28T23:57:41.772Z,6.20
